الصفحة الرئيسية
METAR-TAF:

METAR-TAF

مطار :

مطار ليوبولد سيدار سنغور الدولي

دكار, السنغال

دائرة عرض: 14-44N, خط طول: 017-30W, ارتفاع: 27 متر

مراقبة الطقس الحالي

تاريخ ووقت الإصدار 33 دقيقة قبل الساعة 22:00UTC
ريح 14 عقدة من الجنوب
درجة الحرارة 29°درجة مئوية
الرطوبة 79%
ضغط 1014 hPa
الرؤية 10 كم أو أكثر
غيوم مفككة على ارتفاع 1300 قدم

METAR: GOOY 052200Z 18014KT 9999 BKN013 29/25 Q1014

زمن: 22:33 (22:33 UTC)

توقعات

تاريخ ووقت الإصدار 5ساعات و 3 دقيقة قبل الساعة 17:30UTC
التوقعات صالحة من05 الساعة 18 UTC إلى 06 الساعة 24 UTC
ريح 8 عقدة من الجنوب/الجنوب الغربي
الرؤية 10 كم أو أكثر
غيوم متفرقة على ارتفاع 1000 قدم
نظرية الاحتمالات 30% :
مؤقت
من 05 الساعة 20 UTC إلى 06 الساعة 02 UTC
الرؤية: 4500 متر
غيوم مفككة على ارتفاع 1000 قدم
غيوم قليلة على ارتفاع 3000 قدم, مزنة ركامية.
عاصفة رعدية, مطر

TAF: GOOY 051730Z 0518/0624 21008KT 9999 SCT010 PROB30 TEMPO 0520/0602 4500 TSRA BKN010 FEW030CB

أرصاد الطقس والتوقعات من أكثر من 4000 مطار (تقارير الطقس للمطار METAR والتنبؤ بالطقس بالمطارTAF).

المحطات المتاحة هي النقط الصفراء والحمراء على الخريطة.

حرك المؤشر فوق النقطة لمعرفة اسم المحطة.

ثم انقر لمعرفة أرصاد وتوقعات الطقس.

لتغيير الخارطة: اضغط على الأزرار الخضراء مع رمز الصليب الأسود للتكبير. على الزر الأخضر مع شرطة للتصغير، أو على الأسهم الخضراء للخرائط المجاورة.


METAR-TAF: